sensor_id;sensor_type;location;lat;lon;timestamp;P1;durP1;ratioP1;P2;durP2;ratioP2
22780;SDS011;11557;50.884;4.322;2023-01-15T00:01:18;9.15;;;2.25;;
22780;SDS011;11557;50.884;4.322;2023-01-15T00:03:49;11.70;;;1.80;;
22780;SDS011;11557;50.884;4.322;2023-01-15T00:06:15;12.48;;;2.20;;
22780;SDS011;11557;50.884;4.322;2023-01-15T00:08:41;11.88;;;2.22;;
22780;SDS011;11557;50.884;4.322;2023-01-15T00:11:07;12.73;;;2.10;;
22780;SDS011;11557;50.884;4.322;2023-01-15T00:13:33;11.48;;;1.90;;
22780;SDS011;11557;50.884;4.322;2023-01-15T00:16:17;9.88;;;1.90;;
22780;SDS011;11557;50.884;4.322;2023-01-15T00:18:51;14.43;;;2.20;;
22780;SDS011;11557;50.884;4.322;2023-01-15T00:21:22;12.30;;;2.42;;
22780;SDS011;11557;50.884;4.322;2023-01-15T00:23:49;14.60;;;2.28;;
22780;SDS011;11557;50.884;4.322;2023-01-15T00:26:34;11.05;;;1.90;;
22780;SDS011;11557;50.884;4.322;2023-01-15T00:29:20;14.95;;;2.47;;
22780;SDS011;11557;50.884;4.322;2023-01-15T00:31:56;16.88;;;2.40;;
22780;SDS011;11557;50.884;4.322;2023-01-15T00:34:23;9.55;;;2.00;;
22780;SDS011;11557;50.884;4.322;2023-01-15T00:36:49;13.95;;;2.10;;
22780;SDS011;11557;50.884;4.322;2023-01-15T00:39:15;11.90;;;2.20;;
22780;SDS011;11557;50.884;4.322;2023-01-15T00:41:40;16.50;;;2.53;;
22780;SDS011;11557;50.884;4.322;2023-01-15T00:44:06;16.38;;;3.00;;
22780;SDS011;11557;50.884;4.322;2023-01-15T00:46:31;10.27;;;2.60;;
22780;SDS011;11557;50.884;4.322;2023-01-15T00:48:57;18.42;;;2.05;;
22780;SDS011;11557;50.884;4.322;2023-01-15T00:51:23;14.57;;;2.45;;
22780;SDS011;11557;50.884;4.322;2023-01-15T00:53:48;12.98;;;2.25;;
22780;SDS011;11557;50.884;4.322;2023-01-15T00:56:14;12.50;;;2.53;;
22780;SDS011;11557;50.884;4.322;2023-01-15T00:58:39;11.85;;;2.08;;
22780;SDS011;11557;50.884;4.322;2023-01-15T01:01:06;16.40;;;2.47;;
22780;SDS011;11557;50.884;4.322;2023-01-15T01:03:32;11.13;;;2.28;;
22780;SDS011;11557;50.884;4.322;2023-01-15T01:06:00;16.80;;;2.25;;
22780;SDS011;11557;50.884;4.322;2023-01-15T01:08:27;11.27;;;2.83;;
22780;SDS011;11557;50.884;4.322;2023-01-15T01:11:03;13.27;;;2.00;;
22780;SDS011;11557;50.884;4.322;2023-01-15T01:13:34;12.93;;;1.88;;
22780;SDS011;11557;50.884;4.322;2023-01-15T01:16:01;10.30;;;2.00;;
22780;SDS011;11557;50.884;4.322;2023-01-15T01:18:27;10.57;;;2.10;;
22780;SDS011;11557;50.884;4.322;2023-01-15T01:20:53;22.33;;;2.95;;
22780;SDS011;11557;50.884;4.322;2023-01-15T01:23:19;15.68;;;2.13;;
22780;SDS011;11557;50.884;4.322;2023-01-15T01:25:47;12.93;;;2.40;;
22780;SDS011;11557;50.884;4.322;2023-01-15T01:28:12;15.68;;;2.40;;
22780;SDS011;11557;50.884;4.322;2023-01-15T01:30:38;11.68;;;2.72;;
22780;SDS011;11557;50.884;4.322;2023-01-15T01:33:04;8.65;;;1.73;;
22780;SDS011;11557;50.884;4.322;2023-01-15T01:35:29;15.40;;;2.88;;
22780;SDS011;11557;50.884;4.322;2023-01-15T01:37:55;12.88;;;2.22;;
22780;SDS011;11557;50.884;4.322;2023-01-15T01:40:21;18.33;;;2.10;;
22780;SDS011;11557;50.884;4.322;2023-01-15T01:42:47;11.50;;;1.73;;
22780;SDS011;11557;50.884;4.322;2023-01-15T01:45:18;11.98;;;2.03;;
22780;SDS011;11557;50.884;4.322;2023-01-15T01:47:49;8.88;;;2.00;;
22780;SDS011;11557;50.884;4.322;2023-01-15T01:50:16;12.23;;;1.77;;
22780;SDS011;11557;50.884;4.322;2023-01-15T01:52:44;14.80;;;2.03;;
22780;SDS011;11557;50.884;4.322;2023-01-15T01:55:13;11.02;;;1.90;;
22780;SDS011;11557;50.884;4.322;2023-01-15T01:57:41;13.48;;;1.90;;
22780;SDS011;11557;50.884;4.322;2023-01-15T02:00:08;10.57;;;2.22;;
22780;SDS011;11557;50.884;4.322;2023-01-15T02:02:36;21.30;;;2.38;;
22780;SDS011;11557;50.884;4.322;2023-01-15T02:05:03;12.82;;;2.20;;
22780;SDS011;11557;50.884;4.322;2023-01-15T02:07:29;13.57;;;2.03;;
22780;SDS011;11557;50.884;4.322;2023-01-15T02:09:57;13.90;;;2.17;;
22780;SDS011;11557;50.884;4.322;2023-01-15T02:12:36;13.23;;;2.40;;
22780;SDS011;11557;50.884;4.322;2023-01-15T02:20:19;19.38;;;2.45;;
22780;SDS011;11557;50.884;4.322;2023-01-15T02:28:19;9.27;;;1.75;;
22780;SDS011;11557;50.884;4.322;2023-01-15T02:30:58;13.10;;;2.25;;
22780;SDS011;11557;50.884;4.322;2023-01-15T02:33:54;14.95;;;2.05;;
22780;SDS011;11557;50.884;4.322;2023-01-15T02:36:23;8.50;;;1.70;;
22780;SDS011;11557;50.884;4.322;2023-01-15T02:38:53;12.60;;;2.15;;
22780;SDS011;11557;50.884;4.322;2023-01-15T02:41:24;8.00;;;1.73;;
22780;SDS011;11557;50.884;4.322;2023-01-15T02:43:53;13.32;;;2.30;;
22780;SDS011;11557;50.884;4.322;2023-01-15T02:46:21;11.90;;;1.88;;
22780;SDS011;11557;50.884;4.322;2023-01-15T02:48:52;17.10;;;2.45;;
22780;SDS011;11557;50.884;4.322;2023-01-15T02:51:23;10.95;;;2.00;;
22780;SDS011;11557;50.884;4.322;2023-01-15T02:53:52;15.40;;;2.10;;
22780;SDS011;11557;50.884;4.322;2023-01-15T02:56:23;11.77;;;1.60;;
22780;SDS011;11557;50.884;4.322;2023-01-15T02:58:55;16.42;;;2.63;;
22780;SDS011;11557;50.884;4.322;2023-01-15T03:01:45;8.02;;;1.95;;
22780;SDS011;11557;50.884;4.322;2023-01-15T03:09:55;12.65;;;1.83;;
22780;SDS011;11557;50.884;4.322;2023-01-15T03:18:54;9.35;;;1.42;;
22780;SDS011;11557;50.884;4.322;2023-01-15T03:21:27;11.18;;;1.63;;
22780;SDS011;11557;50.884;4.322;2023-01-15T03:24:10;8.15;;;1.85;;
22780;SDS011;11557;50.884;4.322;2023-01-15T03:26:38;12.68;;;2.50;;
22780;SDS011;11557;50.884;4.322;2023-01-15T03:29:04;10.88;;;1.77;;
22780;SDS011;11557;50.884;4.322;2023-01-15T03:31:32;14.35;;;2.40;;
22780;SDS011;11557;50.884;4.322;2023-01-15T03:33:59;12.38;;;1.60;;
22780;SDS011;11557;50.884;4.322;2023-01-15T03:36:25;9.30;;;1.95;;
22780;SDS011;11557;50.884;4.322;2023-01-15T03:38:51;12.85;;;1.92;;
22780;SDS011;11557;50.884;4.322;2023-01-15T03:49:55;9.93;;;1.23;;
22780;SDS011;11557;50.884;4.322;2023-01-15T03:55:05;8.90;;;1.40;;
22780;SDS011;11557;50.884;4.322;2023-01-15T03:57:56;14.18;;;1.90;;
22780;SDS011;11557;50.884;4.322;2023-01-15T04:00:31;11.25;;;1.80;;
22780;SDS011;11557;50.884;4.322;2023-01-15T04:03:01;10.05;;;1.20;;
22780;SDS011;11557;50.884;4.322;2023-01-15T04:05:30;7.55;;;1.30;;
22780;SDS011;11557;50.884;4.322;2023-01-15T04:07:59;10.85;;;1.95;;
22780;SDS011;11557;50.884;4.322;2023-01-15T04:10:26;7.88;;;1.58;;
22780;SDS011;11557;50.884;4.322;2023-01-15T04:12:52;7.60;;;1.20;;
22780;SDS011;11557;50.884;4.322;2023-01-15T04:15:18;9.55;;;1.90;;
22780;SDS011;11557;50.884;4.322;2023-01-15T04:17:43;8.45;;;1.35;;
22780;SDS011;11557;50.884;4.322;2023-01-15T04:20:09;7.50;;;1.58;;
22780;SDS011;11557;50.884;4.322;2023-01-15T04:22:35;10.25;;;1.45;;
22780;SDS011;11557;50.884;4.322;2023-01-15T04:25:02;10.25;;;1.60;;
22780;SDS011;11557;50.884;4.322;2023-01-15T04:27:28;8.45;;;1.40;;
22780;SDS011;11557;50.884;4.322;2023-01-15T04:29:54;10.35;;;1.20;;
22780;SDS011;11557;50.884;4.322;2023-01-15T04:32:20;6.50;;;1.65;;
22780;SDS011;11557;50.884;4.322;2023-01-15T04:34:45;9.15;;;1.55;;
22780;SDS011;11557;50.884;4.322;2023-01-15T04:37:11;13.32;;;1.55;;
22780;SDS011;11557;50.884;4.322;2023-01-15T04:39:37;13.13;;;1.45;;
22780;SDS011;11557;50.884;4.322;2023-01-15T04:42:02;7.85;;;1.55;;
22780;SDS011;11557;50.884;4.322;2023-01-15T04:44:47;7.65;;;1.67;;
22780;SDS011;11557;50.884;4.322;2023-01-15T04:47:13;12.05;;;1.70;;
22780;SDS011;11557;50.884;4.322;2023-01-15T04:49:38;8.70;;;1.55;;
22780;SDS011;11557;50.884;4.322;2023-01-15T04:52:04;7.60;;;1.90;;
22780;SDS011;11557;50.884;4.322;2023-01-15T04:54:30;5.78;;;1.27;;
22780;SDS011;11557;50.884;4.322;2023-01-15T04:56:56;5.22;;;0.70;;
22780;SDS011;11557;50.884;4.322;2023-01-15T04:59:25;8.90;;;1.30;;
22780;SDS011;11557;50.884;4.322;2023-01-15T05:01:51;4.80;;;1.05;;
22780;SDS011;11557;50.884;4.322;2023-01-15T05:04:17;7.90;;;1.40;;
22780;SDS011;11557;50.884;4.322;2023-01-15T05:06:43;7.32;;;1.00;;
22780;SDS011;11557;50.884;4.322;2023-01-15T05:09:09;7.30;;;1.55;;
22780;SDS011;11557;50.884;4.322;2023-01-15T05:11:35;8.18;;;1.45;;
22780;SDS011;11557;50.884;4.322;2023-01-15T05:14:03;9.43;;;1.30;;
22780;SDS011;11557;50.884;4.322;2023-01-15T05:16:29;9.23;;;1.08;;
22780;SDS011;11557;50.884;4.322;2023-01-15T05:18:57;6.03;;;1.15;;
22780;SDS011;11557;50.884;4.322;2023-01-15T05:21:27;7.15;;;1.17;;
22780;SDS011;11557;50.884;4.322;2023-01-15T05:23:55;8.38;;;1.40;;
22780;SDS011;11557;50.884;4.322;2023-01-15T05:26:22;6.05;;;1.15;;
22780;SDS011;11557;50.884;4.322;2023-01-15T05:28:49;8.73;;;1.38;;
22780;SDS011;11557;50.884;4.322;2023-01-15T05:31:17;7.43;;;1.33;;
22780;SDS011;11557;50.884;4.322;2023-01-15T05:33:43;8.63;;;2.05;;
22780;SDS011;11557;50.884;4.322;2023-01-15T05:36:11;8.32;;;1.77;;
22780;SDS011;11557;50.884;4.322;2023-01-15T05:38:39;6.93;;;1.40;;
22780;SDS011;11557;50.884;4.322;2023-01-15T05:41:08;8.77;;;2.22;;
22780;SDS011;11557;50.884;4.322;2023-01-15T05:43:55;10.50;;;1.40;;
22780;SDS011;11557;50.884;4.322;2023-01-15T05:46:23;5.97;;;1.00;;
22780;SDS011;11557;50.884;4.322;2023-01-15T05:48:48;4.68;;;0.95;;
22780;SDS011;11557;50.884;4.322;2023-01-15T05:51:14;7.32;;;1.10;;
22780;SDS011;11557;50.884;4.322;2023-01-15T05:53:40;7.00;;;1.55;;
22780;SDS011;11557;50.884;4.322;2023-01-15T05:56:06;7.47;;;1.30;;
22780;SDS011;11557;50.884;4.322;2023-01-15T05:58:32;8.32;;;1.00;;
22780;SDS011;11557;50.884;4.322;2023-01-15T06:00:58;5.88;;;1.08;;
22780;SDS011;11557;50.884;4.322;2023-01-15T06:03:24;7.63;;;1.02;;
22780;SDS011;11557;50.884;4.322;2023-01-15T06:05:53;4.20;;;0.82;;
22780;SDS011;11557;50.884;4.322;2023-01-15T06:08:21;6.32;;;1.38;;
22780;SDS011;11557;50.884;4.322;2023-01-15T06:10:47;6.78;;;0.90;;
22780;SDS011;11557;50.884;4.322;2023-01-15T06:13:14;3.88;;;1.00;;
22780;SDS011;11557;50.884;4.322;2023-01-15T06:15:41;6.22;;;0.95;;
22780;SDS011;11557;50.884;4.322;2023-01-15T06:18:08;6.07;;;1.77;;
22780;SDS011;11557;50.884;4.322;2023-01-15T06:20:35;5.38;;;1.13;;
22780;SDS011;11557;50.884;4.322;2023-01-15T06:23:01;6.88;;;2.60;;
22780;SDS011;11557;50.884;4.322;2023-01-15T06:25:27;6.35;;;2.40;;
22780;SDS011;11557;50.884;4.322;2023-01-15T06:27:53;11.27;;;2.63;;
22780;SDS011;11557;50.884;4.322;2023-01-15T06:30:18;9.95;;;2.00;;
22780;SDS011;11557;50.884;4.322;2023-01-15T06:32:44;7.30;;;2.30;;
22780;SDS011;11557;50.884;4.322;2023-01-15T06:35:10;6.50;;;1.48;;
22780;SDS011;11557;50.884;4.322;2023-01-15T06:37:36;7.65;;;1.17;;
22780;SDS011;11557;50.884;4.322;2023-01-15T06:40:02;5.20;;;1.17;;
22780;SDS011;11557;50.884;4.322;2023-01-15T06:42:28;5.00;;;1.25;;
22780;SDS011;11557;50.884;4.322;2023-01-15T06:45:12;7.55;;;1.67;;
22780;SDS011;11557;50.884;4.322;2023-01-15T06:47:56;5.30;;;1.47;;
22780;SDS011;11557;50.884;4.322;2023-01-15T06:50:23;6.82;;;1.90;;
22780;SDS011;11557;50.884;4.322;2023-01-15T06:52:49;11.32;;;1.73;;
22780;SDS011;11557;50.884;4.322;2023-01-15T06:55:15;11.95;;;1.75;;
22780;SDS011;11557;50.884;4.322;2023-01-15T06:57:42;9.00;;;1.60;;
22780;SDS011;11557;50.884;4.322;2023-01-15T07:00:09;9.63;;;1.45;;
22780;SDS011;11557;50.884;4.322;2023-01-15T07:02:36;7.22;;;1.63;;
22780;SDS011;11557;50.884;4.322;2023-01-15T07:05:02;7.85;;;1.73;;
22780;SDS011;11557;50.884;4.322;2023-01-15T07:07:28;8.73;;;1.58;;
22780;SDS011;11557;50.884;4.322;2023-01-15T07:09:54;8.05;;;1.45;;
22780;SDS011;11557;50.884;4.322;2023-01-15T07:12:20;11.50;;;1.67;;
22780;SDS011;11557;50.884;4.322;2023-01-15T07:14:47;8.55;;;1.48;;
22780;SDS011;11557;50.884;4.322;2023-01-15T07:17:13;8.90;;;1.48;;
22780;SDS011;11557;50.884;4.322;2023-01-15T07:19:38;11.32;;;1.65;;
22780;SDS011;11557;50.884;4.322;2023-01-15T07:22:05;9.75;;;1.60;;
22780;SDS011;11557;50.884;4.322;2023-01-15T07:24:31;8.85;;;1.70;;
22780;SDS011;11557;50.884;4.322;2023-01-15T07:26:57;15.20;;;1.73;;
22780;SDS011;11557;50.884;4.322;2023-01-15T07:29:23;9.65;;;1.40;;
22780;SDS011;11557;50.884;4.322;2023-01-15T07:31:49;7.82;;;1.33;;
22780;SDS011;11557;50.884;4.322;2023-01-15T07:34:15;10.77;;;1.40;;
22780;SDS011;11557;50.884;4.322;2023-01-15T07:36:41;12.75;;;2.25;;
22780;SDS011;11557;50.884;4.322;2023-01-15T07:39:07;8.25;;;1.60;;
22780;SDS011;11557;50.884;4.322;2023-01-15T07:41:34;12.15;;;1.65;;
22780;SDS011;11557;50.884;4.322;2023-01-15T07:44:19;12.40;;;1.73;;
22780;SDS011;11557;50.884;4.322;2023-01-15T07:47:20;10.63;;;1.80;;
22780;SDS011;11557;50.884;4.322;2023-01-15T07:50:07;10.15;;;2.38;;
22780;SDS011;11557;50.884;4.322;2023-01-15T07:52:35;9.80;;;1.98;;
22780;SDS011;11557;50.884;4.322;2023-01-15T07:55:01;13.93;;;2.08;;
22780;SDS011;11557;50.884;4.322;2023-01-15T07:57:28;13.63;;;1.98;;
22780;SDS011;11557;50.884;4.322;2023-01-15T07:59:53;9.90;;;1.60;;
22780;SDS011;11557;50.884;4.322;2023-01-15T08:02:19;8.90;;;1.60;;
22780;SDS011;11557;50.884;4.322;2023-01-15T08:04:45;8.13;;;1.40;;
22780;SDS011;11557;50.884;4.322;2023-01-15T08:07:12;10.32;;;1.92;;
22780;SDS011;11557;50.884;4.322;2023-01-15T08:09:38;11.73;;;2.20;;
22780;SDS011;11557;50.884;4.322;2023-01-15T08:12:04;10.55;;;1.70;;
22780;SDS011;11557;50.884;4.322;2023-01-15T08:14:48;9.48;;;2.17;;
22780;SDS011;11557;50.884;4.322;2023-01-15T08:17:33;11.27;;;1.80;;
22780;SDS011;11557;50.884;4.322;2023-01-15T08:20:00;7.97;;;1.67;;
22780;SDS011;11557;50.884;4.322;2023-01-15T08:22:27;12.20;;;1.48;;
22780;SDS011;11557;50.884;4.322;2023-01-15T08:24:53;11.95;;;1.80;;
22780;SDS011;11557;50.884;4.322;2023-01-15T08:27:18;6.70;;;1.95;;
22780;SDS011;11557;50.884;4.322;2023-01-15T08:29:44;14.00;;;3.85;;
22780;SDS011;11557;50.884;4.322;2023-01-15T08:32:09;7.78;;;1.73;;
22780;SDS011;11557;50.884;4.322;2023-01-15T08:34:35;10.48;;;1.95;;
22780;SDS011;11557;50.884;4.322;2023-01-15T08:37:01;12.88;;;1.80;;
22780;SDS011;11557;50.884;4.322;2023-01-15T08:39:26;12.38;;;1.90;;
22780;SDS011;11557;50.884;4.322;2023-01-15T08:41:53;10.63;;;1.52;;
22780;SDS011;11557;50.884;4.322;2023-01-15T08:44:19;12.98;;;2.05;;
22780;SDS011;11557;50.884;4.322;2023-01-15T08:46:46;8.20;;;1.63;;
22780;SDS011;11557;50.884;4.322;2023-01-15T08:49:13;8.52;;;1.60;;
22780;SDS011;11557;50.884;4.322;2023-01-15T08:51:38;9.98;;;1.55;;
22780;SDS011;11557;50.884;4.322;2023-01-15T08:54:04;13.93;;;2.30;;
22780;SDS011;11557;50.884;4.322;2023-01-15T08:56:30;7.18;;;1.58;;
22780;SDS011;11557;50.884;4.322;2023-01-15T08:58:55;14.18;;;1.80;;
22780;SDS011;11557;50.884;4.322;2023-01-15T09:01:21;10.13;;;1.67;;
22780;SDS011;11557;50.884;4.322;2023-01-15T09:03:47;10.85;;;1.70;;
22780;SDS011;11557;50.884;4.322;2023-01-15T09:06:12;7.70;;;2.22;;
22780;SDS011;11557;50.884;4.322;2023-01-15T09:08:38;9.82;;;1.67;;
22780;SDS011;11557;50.884;4.322;2023-01-15T09:11:05;10.70;;;1.98;;
22780;SDS011;11557;50.884;4.322;2023-01-15T09:13:33;8.90;;;1.70;;
22780;SDS011;11557;50.884;4.322;2023-01-15T09:16:00;12.93;;;1.92;;
22780;SDS011;11557;50.884;4.322;2023-01-15T09:18:28;10.70;;;1.88;;
22780;SDS011;11557;50.884;4.322;2023-01-15T09:20:54;9.13;;;1.70;;
22780;SDS011;11557;50.884;4.322;2023-01-15T09:23:20;8.40;;;1.35;;
22780;SDS011;11557;50.884;4.322;2023-01-15T09:25:52;11.82;;;1.30;;
22780;SDS011;11557;50.884;4.322;2023-01-15T09:28:20;9.23;;;1.35;;
22780;SDS011;11557;50.884;4.322;2023-01-15T09:30:46;7.68;;;1.45;;
22780;SDS011;11557;50.884;4.322;2023-01-15T09:33:12;8.82;;;2.20;;
22780;SDS011;11557;50.884;4.322;2023-01-15T09:35:38;5.55;;;1.20;;
22780;SDS011;11557;50.884;4.322;2023-01-15T09:38:04;8.73;;;2.55;;
22780;SDS011;11557;50.884;4.322;2023-01-15T09:48:41;8.38;;;2.65;;
22780;SDS011;11557;50.884;4.322;2023-01-15T09:56:56;14.35;;;4.55;;
22780;SDS011;11557;50.884;4.322;2023-01-15T09:59:28;7.10;;;1.50;;
22780;SDS011;11557;50.884;4.322;2023-01-15T10:01:59;17.17;;;6.43;;
22780;SDS011;11557;50.884;4.322;2023-01-15T10:04:45;15.80;;;6.35;;
22780;SDS011;11557;50.884;4.322;2023-01-15T10:07:17;9.60;;;2.90;;
22780;SDS011;11557;50.884;4.322;2023-01-15T10:09:46;13.40;;;4.93;;
22780;SDS011;11557;50.884;4.322;2023-01-15T10:12:19;8.43;;;2.03;;
22780;SDS011;11557;50.884;4.322;2023-01-15T10:17:40;6.90;;;2.33;;
22780;SDS011;11557;50.884;4.322;2023-01-15T10:20:17;6.30;;;1.35;;
22780;SDS011;11557;50.884;4.322;2023-01-15T10:31:26;9.23;;;1.30;;
22780;SDS011;11557;50.884;4.322;2023-01-15T10:37:02;3.10;;;0.90;;
22780;SDS011;11557;50.884;4.322;2023-01-15T10:47:25;10.20;;;1.10;;
22780;SDS011;11557;50.884;4.322;2023-01-15T10:49:57;4.55;;;0.82;;
22780;SDS011;11557;50.884;4.322;2023-01-15T10:52:26;3.63;;;1.17;;
22780;SDS011;11557;50.884;4.322;2023-01-15T10:55:03;4.47;;;0.95;;
22780;SDS011;11557;50.884;4.322;2023-01-15T11:00:13;8.13;;;1.15;;
22780;SDS011;11557;50.884;4.322;2023-01-15T11:05:19;4.50;;;1.13;;
22780;SDS011;11557;50.884;4.322;2023-01-15T11:07:48;5.28;;;1.30;;
22780;SDS011;11557;50.884;4.322;2023-01-15T11:10:17;5.68;;;1.45;;
22780;SDS011;11557;50.884;4.322;2023-01-15T11:12:53;8.75;;;2.13;;
22780;SDS011;11557;50.884;4.322;2023-01-15T11:15:46;8.98;;;1.23;;
22780;SDS011;11557;50.884;4.322;2023-01-15T11:18:33;5.15;;;1.05;;
22780;SDS011;11557;50.884;4.322;2023-01-15T11:21:21;4.60;;;1.08;;
22780;SDS011;11557;50.884;4.322;2023-01-15T11:23:48;7.05;;;1.13;;
22780;SDS011;11557;50.884;4.322;2023-01-15T11:26:19;6.40;;;1.30;;
22780;SDS011;11557;50.884;4.322;2023-01-15T11:28:51;6.68;;;1.33;;
22780;SDS011;11557;50.884;4.322;2023-01-15T11:31:18;8.05;;;1.40;;
22780;SDS011;11557;50.884;4.322;2023-01-15T11:33:44;9.23;;;1.52;;
22780;SDS011;11557;50.884;4.322;2023-01-15T11:36:25;8.57;;;1.55;;
22780;SDS011;11557;50.884;4.322;2023-01-15T11:38:52;6.38;;;2.72;;
22780;SDS011;11557;50.884;4.322;2023-01-15T11:41:20;5.55;;;1.80;;
22780;SDS011;11557;50.884;4.322;2023-01-15T11:44:15;7.60;;;1.58;;
22780;SDS011;11557;50.884;4.322;2023-01-15T11:47:01;7.93;;;1.38;;
22780;SDS011;11557;50.884;4.322;2023-01-15T11:49:49;8.07;;;1.67;;
22780;SDS011;11557;50.884;4.322;2023-01-15T11:52:38;5.30;;;1.40;;
22780;SDS011;11557;50.884;4.322;2023-01-15T11:55:15;9.27;;;1.52;;
22780;SDS011;11557;50.884;4.322;2023-01-15T11:57:44;5.18;;;1.65;;
22780;SDS011;11557;50.884;4.322;2023-01-15T12:00:22;7.00;;;1.92;;
22780;SDS011;11557;50.884;4.322;2023-01-15T12:03:14;8.05;;;1.30;;
22780;SDS011;11557;50.884;4.322;2023-01-15T12:05:47;8.13;;;1.63;;
22780;SDS011;11557;50.884;4.322;2023-01-15T12:11:54;4.30;;;1.30;;
22780;SDS011;11557;50.884;4.322;2023-01-15T12:28:37;9.63;;;1.50;;
22780;SDS011;11557;50.884;4.322;2023-01-15T12:31:14;7.50;;;1.75;;
22780;SDS011;11557;50.884;4.322;2023-01-15T12:38:55;4.38;;;1.13;;
22780;SDS011;11557;50.884;4.322;2023-01-15T12:41:38;6.10;;;1.20;;
22780;SDS011;11557;50.884;4.322;2023-01-15T12:44:33;12.02;;;1.40;;
22780;SDS011;11557;50.884;4.322;2023-01-15T12:53:26;8.98;;;1.55;;
22780;SDS011;11557;50.884;4.322;2023-01-15T12:59:01;7.68;;;1.08;;
22780;SDS011;11557;50.884;4.322;2023-01-15T13:01:45;5.68;;;1.20;;
22780;SDS011;11557;50.884;4.322;2023-01-15T13:04:40;5.15;;;1.20;;
22780;SDS011;11557;50.884;4.322;2023-01-15T13:07:33;8.57;;;1.25;;
22780;SDS011;11557;50.884;4.322;2023-01-15T13:10:24;5.50;;;1.40;;
22780;SDS011;11557;50.884;4.322;2023-01-15T13:12:54;9.38;;;2.20;;
22780;SDS011;11557;50.884;4.322;2023-01-15T13:15:32;3.67;;;0.95;;
22780;SDS011;11557;50.884;4.322;2023-01-15T13:18:10;4.57;;;1.25;;
22780;SDS011;11557;50.884;4.322;2023-01-15T13:20:47;3.97;;;1.27;;
22780;SDS011;11557;50.884;4.322;2023-01-15T13:23:29;3.83;;;0.85;;
22780;SDS011;11557;50.884;4.322;2023-01-15T13:34:00;4.07;;;0.98;;
22780;SDS011;11557;50.884;4.322;2023-01-15T13:36:32;5.70;;;1.00;;
22780;SDS011;11557;50.884;4.322;2023-01-15T13:39:10;4.15;;;1.02;;
22780;SDS011;11557;50.884;4.322;2023-01-15T13:41:40;7.60;;;1.17;;
22780;SDS011;11557;50.884;4.322;2023-01-15T13:44:27;4.35;;;1.00;;
22780;SDS011;11557;50.884;4.322;2023-01-15T13:47:03;2.58;;;1.10;;
22780;SDS011;11557;50.884;4.322;2023-01-15T13:49:39;4.43;;;0.90;;
22780;SDS011;11557;50.884;4.322;2023-01-15T13:52:20;8.25;;;1.35;;
22780;SDS011;11557;50.884;4.322;2023-01-15T14:06:42;7.20;;;1.60;;
22780;SDS011;11557;50.884;4.322;2023-01-15T14:09:09;7.50;;;1.60;;
22780;SDS011;11557;50.884;4.322;2023-01-15T14:16:57;4.97;;;1.30;;
22780;SDS011;11557;50.884;4.322;2023-01-15T14:34:21;6.20;;;1.67;;
22780;SDS011;11557;50.884;4.322;2023-01-15T14:36:53;7.68;;;1.40;;
22780;SDS011;11557;50.884;4.322;2023-01-15T14:39:53;6.88;;;1.90;;
22780;SDS011;11557;50.884;4.322;2023-01-15T14:47:42;7.20;;;1.60;;
22780;SDS011;11557;50.884;4.322;2023-01-15T14:52:51;4.93;;;1.80;;
22780;SDS011;11557;50.884;4.322;2023-01-15T14:55:18;8.00;;;1.90;;
22780;SDS011;11557;50.884;4.322;2023-01-15T14:57:48;5.28;;;1.50;;
22780;SDS011;11557;50.884;4.322;2023-01-15T15:00:21;8.93;;;2.05;;
22780;SDS011;11557;50.884;4.322;2023-01-15T15:02:50;7.13;;;1.45;;
22780;SDS011;11557;50.884;4.322;2023-01-15T15:05:17;7.00;;;1.70;;
22780;SDS011;11557;50.884;4.322;2023-01-15T15:07:48;8.93;;;2.53;;
22780;SDS011;11557;50.884;4.322;2023-01-15T15:10:34;5.95;;;1.45;;
22780;SDS011;11557;50.884;4.322;2023-01-15T15:13:09;5.38;;;1.40;;
22780;SDS011;11557;50.884;4.322;2023-01-15T15:21:32;5.07;;;1.38;;
22780;SDS011;11557;50.884;4.322;2023-01-15T15:24:14;5.28;;;1.50;;
22780;SDS011;11557;50.884;4.322;2023-01-15T15:30:01;6.65;;;1.40;;
22780;SDS011;11557;50.884;4.322;2023-01-15T15:32:31;4.45;;;1.10;;
22780;SDS011;11557;50.884;4.322;2023-01-15T15:35:04;7.43;;;1.50;;
22780;SDS011;11557;50.884;4.322;2023-01-15T15:37:42;6.57;;;1.20;;
22780;SDS011;11557;50.884;4.322;2023-01-15T15:40:18;4.63;;;1.40;;
22780;SDS011;11557;50.884;4.322;2023-01-15T15:42:52;2.50;;;1.33;;
22780;SDS011;11557;50.884;4.322;2023-01-15T15:45:50;4.07;;;1.40;;
22780;SDS011;11557;50.884;4.322;2023-01-15T15:48:35;3.55;;;1.20;;
22780;SDS011;11557;50.884;4.322;2023-01-15T15:54:10;3.75;;;1.20;;
22780;SDS011;11557;50.884;4.322;2023-01-15T16:01:52;7.03;;;1.73;;
22780;SDS011;11557;50.884;4.322;2023-01-15T16:04:19;2.95;;;1.55;;
22780;SDS011;11557;50.884;4.322;2023-01-15T16:06:45;5.15;;;1.17;;
22780;SDS011;11557;50.884;4.322;2023-01-15T16:09:12;3.33;;;1.23;;
22780;SDS011;11557;50.884;4.322;2023-01-15T16:11:43;8.77;;;1.63;;
22780;SDS011;11557;50.884;4.322;2023-01-15T16:14:09;5.50;;;1.70;;
22780;SDS011;11557;50.884;4.322;2023-01-15T16:16:39;6.05;;;1.30;;
22780;SDS011;11557;50.884;4.322;2023-01-15T16:19:06;3.63;;;1.17;;
22780;SDS011;11557;50.884;4.322;2023-01-15T16:21:39;5.60;;;1.50;;
22780;SDS011;11557;50.884;4.322;2023-01-15T16:24:06;6.28;;;1.45;;
22780;SDS011;11557;50.884;4.322;2023-01-15T16:26:34;4.88;;;1.52;;
22780;SDS011;11557;50.884;4.322;2023-01-15T16:29:15;4.57;;;1.20;;
22780;SDS011;11557;50.884;4.322;2023-01-15T16:31:43;5.72;;;1.50;;
22780;SDS011;11557;50.884;4.322;2023-01-15T16:34:15;6.57;;;1.73;;
22780;SDS011;11557;50.884;4.322;2023-01-15T16:39:17;3.90;;;1.50;;
22780;SDS011;11557;50.884;4.322;2023-01-15T16:41:52;6.97;;;1.45;;
22780;SDS011;11557;50.884;4.322;2023-01-15T16:47:04;3.92;;;1.27;;
22780;SDS011;11557;50.884;4.322;2023-01-15T16:49:31;2.90;;;1.17;;
22780;SDS011;11557;50.884;4.322;2023-01-15T16:51:59;3.03;;;0.63;;
22780;SDS011;11557;50.884;4.322;2023-01-15T16:57:04;4.25;;;1.15;;
22780;SDS011;11557;50.884;4.322;2023-01-15T17:02:22;2.10;;;1.13;;
22780;SDS011;11557;50.884;4.322;2023-01-15T17:04:54;3.60;;;1.60;;
22780;SDS011;11557;50.884;4.322;2023-01-15T17:07:25;2.40;;;1.45;;
22780;SDS011;11557;50.884;4.322;2023-01-15T17:10:03;4.90;;;1.75;;
22780;SDS011;11557;50.884;4.322;2023-01-15T17:12:31;4.70;;;1.85;;
22780;SDS011;11557;50.884;4.322;2023-01-15T17:17:44;6.05;;;2.75;;
22780;SDS011;11557;50.884;4.322;2023-01-15T17:20:11;3.65;;;2.92;;
22780;SDS011;11557;50.884;4.322;2023-01-15T17:22:43;3.60;;;2.28;;
22780;SDS011;11557;50.884;4.322;2023-01-15T17:25:20;3.45;;;2.28;;
22780;SDS011;11557;50.884;4.322;2023-01-15T17:27:50;8.27;;;2.20;;
22780;SDS011;11557;50.884;4.322;2023-01-15T17:30:17;10.43;;;2.63;;
22780;SDS011;11557;50.884;4.322;2023-01-15T17:32:43;7.10;;;3.40;;
22780;SDS011;11557;50.884;4.322;2023-01-15T17:35:17;6.47;;;4.07;;
22780;SDS011;11557;50.884;4.322;2023-01-15T17:37:50;10.77;;;4.85;;
22780;SDS011;11557;50.884;4.322;2023-01-15T17:40:18;7.75;;;3.20;;
22780;SDS011;11557;50.884;4.322;2023-01-15T17:42:44;5.68;;;2.78;;
22780;SDS011;11557;50.884;4.322;2023-01-15T17:45:20;8.07;;;3.75;;
22780;SDS011;11557;50.884;4.322;2023-01-15T17:47:48;10.82;;;3.22;;
22780;SDS011;11557;50.884;4.322;2023-01-15T17:50:14;12.02;;;4.45;;
22780;SDS011;11557;50.884;4.322;2023-01-15T17:52:41;9.27;;;3.20;;
22780;SDS011;11557;50.884;4.322;2023-01-15T17:55:14;10.18;;;3.25;;
22780;SDS011;11557;50.884;4.322;2023-01-15T17:58:00;10.68;;;4.05;;
22780;SDS011;11557;50.884;4.322;2023-01-15T18:00:45;14.63;;;4.50;;
22780;SDS011;11557;50.884;4.322;2023-01-15T18:03:31;17.20;;;6.30;;
22780;SDS011;11557;50.884;4.322;2023-01-15T18:06:15;15.43;;;6.18;;
22780;SDS011;11557;50.884;4.322;2023-01-15T18:08:45;13.18;;;4.75;;
22780;SDS011;11557;50.884;4.322;2023-01-15T18:11:14;10.30;;;3.67;;